ENFG/VDB METAR and TAF weather

Enter ICAO airport designator
Station Type Date Time Source
ENFG METAR 2018/01/14 17:20 UTC NOAA

ENFG 141720Z 15012KT 9999 -SN FEW008 BKN014 M08/M09 Q1016


Station Type Date Time Source
ENFG Decoded METAR 2018/01/14 17:20 UTC NOAA

Fagernes Leirin, Norway (ENFG) 61-00N 009-18E
Jan 14, 2018 - 12:20 PM EST / 2018.01.14 1720 UTC
Wind: from the SSE (150 degrees) at 14 MPH (12 KT):0
Visibility: greater than 7 mile(s):0
Sky conditions: mostly cloudy
Weather: light snow
Temperature: 17 F (-8 C)
Windchill: 3 F (-16 C):1
Dew Point: 15 F (-9 C)
Relative Humidity: 92%
Pressure (altimeter): 30.00 in. Hg (1016 hPa)
ob: ENFG 141720Z 15012KT 9999 -SN FEW008 BKN014 M08/M09 Q1016
cycle: 17

Station Type Date Time Source
ENFG TAF UTC NOAA

Error!


Example: see airport list